PWSweather.com
Personal Weather Stations
Station Observations
ISYDDANM23
Felsted, AabenraaDK 6200

FelstedAabenraaDK 6200

Lat: 54.977066, Lon: 9.507192

Elevation: 135

Station Type: Davis Vantage Pro 2 Plus 24H

http://www.valkaer.dk

High Low Average
Temperature 60.3°F15.7°C 57.8°F14.3°C 58.7°F14.8°C
Dew Point 57.4°F14.1°C 55.2°F12.9°C 56.2°F13.4°C
Winds 6.9 mph 11.1 kmh 1.2 mph 1.9 kmh 3.0 mph E4.8 kmh E
Wind Gusts 11.5 mph18.5 kmh 2.3 mph3.7 kmh 5.0 mph8.0 kmh
Humidity 93% 87% 91%
Pressure 29.73 in1006.8 mb 29.68 in1005.1 mb -
Precipitation 0.60 in15.2 mm - -
Hour Temp Dew Point Humidity Winds Wind Gusts Pressure Precip Precip Rate Daily Precip Total
12:00 AM 58.6°F14.8°C 56.6°F13.7°C 93% 4.6 mph ESE7.4 kmh ESE 9.2 mph14.8 kmh 29.73 in1006.8 mb - 0.00 in0.0 mm 0.00 in0.0 mm
12:10 AM 58.7°F14.8°C 56.6°F13.7°C 93% 5.8 mph SE9.3 kmh SE 9.2 mph14.8 kmh 29.73 in1006.8 mb - 0.00 in0.0 mm 0.00 in0.0 mm
12:15 AM 58.7°F14.8°C 56.4°F13.6°C 92% 5.8 mph ESE9.3 kmh ESE 8.1 mph13.0 kmh 29.73 in1006.8 mb - 0.00 in0.0 mm 0.00 in0.0 mm
12:20 AM 58.7°F14.8°C 56.4°F13.6°C 92% 2.3 mph E3.7 kmh E 4.6 mph7.4 kmh 29.73 in1006.8 mb - 0.00 in0.0 mm 0.00 in0.0 mm
12:25 AM 58.7°F14.8°C 56.4°F13.6°C 92% 3.5 mph ESE5.6 kmh ESE 4.6 mph7.4 kmh 29.73 in1006.8 mb - 0.00 in0.0 mm 0.00 in0.0 mm
12:30 AM 58.8°F14.9°C 56.5°F13.6°C 92% 3.5 mph E5.6 kmh E 8.1 mph13.0 kmh 29.73 in1006.8 mb - 0.00 in0.0 mm 0.00 in0.0 mm
12:35 AM 58.9°F14.9°C 56.6°F13.7°C 92% 2.3 mph ESE3.7 kmh ESE 3.5 mph5.6 kmh 29.73 in1006.8 mb - 0.00 in0.0 mm 0.00 in0.0 mm
12:40 AM 58.9°F14.9°C 56.6°F13.7°C 92% 4.6 mph ESE7.4 kmh ESE 6.9 mph11.1 kmh 29.73 in1006.8 mb - 0.00 in0.0 mm 0.00 in0.0 mm
12:45 AM 58.9°F14.9°C 56.6°F13.7°C 92% 3.5 mph SE5.6 kmh SE 6.9 mph11.1 kmh 29.73 in1006.8 mb - 0.00 in0.0 mm 0.00 in0.0 mm
12:50 AM 58.9°F14.9°C 56.6°F13.7°C 92% 3.5 mph E5.6 kmh E 3.5 mph5.6 kmh 29.72 in1006.4 mb - 0.00 in0.0 mm 0.00 in0.0 mm
12:55 AM 58.9°F14.9°C 56.5°F13.6°C 92% 3.5 mph ESE5.6 kmh ESE 6.9 mph11.1 kmh 29.73 in1006.8 mb - 0.00 in0.0 mm 0.00 in0.0 mm
01:00 AM 58.8°F14.9°C 56.5°F13.6°C 92% 3.5 mph SE5.6 kmh SE 5.8 mph9.3 kmh 29.73 in1006.8 mb - 0.00 in0.0 mm 0.00 in0.0 mm
01:10 AM 58.5°F14.7°C 56.2°F13.4°C 92% 2.3 mph ESE3.7 kmh ESE 3.5 mph5.6 kmh 29.72 in1006.4 mb - 0.00 in0.0 mm 0.00 in0.0 mm
01:15 AM 58.4°F14.7°C 56.1°F13.4°C 92% 2.3 mph SE3.7 kmh SE 3.5 mph5.6 kmh 29.72 in1006.4 mb - 0.00 in0.0 mm 0.00 in0.0 mm
01:20 AM 58.2°F14.6°C 55.9°F13.3°C 92% 2.3 mph ESE3.7 kmh ESE 5.8 mph9.3 kmh 29.72 in1006.4 mb - 0.00 in0.0 mm 0.00 in0.0 mm
01:25 AM 58.1°F14.5°C 55.8°F13.2°C 92% 1.2 mph E1.9 kmh E 3.5 mph5.6 kmh 29.72 in1006.4 mb - 0.00 in0.0 mm 0.00 in0.0 mm
01:30 AM 57.9°F14.4°C 55.6°F13.1°C 92% 1.2 mph ESE1.9 kmh ESE 2.3 mph3.7 kmh 29.72 in1006.4 mb - 0.00 in0.0 mm 0.00 in0.0 mm
01:35 AM 57.8°F14.3°C 55.5°F13.1°C 92% 1.2 mph E1.9 kmh E 3.5 mph5.6 kmh 29.72 in1006.4 mb - 0.00 in0.0 mm 0.00 in0.0 mm
01:40 AM 57.8°F14.3°C 55.5°F13.1°C 92% 2.3 mph ESE3.7 kmh ESE 3.5 mph5.6 kmh 29.72 in1006.4 mb - 0.00 in0.0 mm 0.00 in0.0 mm
01:45 AM 57.8°F14.3°C 55.5°F13.1°C 92% 2.3 mph ESE3.7 kmh ESE 3.5 mph5.6 kmh 29.71 in1006.1 mb - 0.00 in0.0 mm 0.00 in0.0 mm
01:50 AM 57.9°F14.4°C 55.6°F13.1°C 92% 3.5 mph ESE5.6 kmh ESE 4.6 mph7.4 kmh 29.71 in1006.1 mb - 0.00 in0.0 mm 0.00 in0.0 mm
01:55 AM 58.1°F14.5°C 56.1°F13.4°C 93% 4.6 mph ESE7.4 kmh ESE 6.9 mph11.1 kmh 29.71 in1006.1 mb - 0.00 in0.0 mm 0.00 in0.0 mm
02:00 AM 58.2°F14.6°C 55.9°F13.3°C 92% 3.5 mph E5.6 kmh E 6.9 mph11.1 kmh 29.71 in1006.1 mb - 0.00 in0.0 mm 0.00 in0.0 mm
02:10 AM 58.2°F14.6°C 55.9°F13.3°C 92% 4.6 mph E7.4 kmh E 6.9 mph11.1 kmh 29.71 in1006.1 mb - 0.00 in0.0 mm 0.00 in0.0 mm
02:15 AM 58.2°F14.6°C 55.9°F13.3°C 92% 2.3 mph SE3.7 kmh SE 3.5 mph5.6 kmh 29.71 in1006.1 mb - 0.00 in0.0 mm 0.00 in0.0 mm
02:20 AM 58.2°F14.6°C 55.9°F13.3°C 92% 4.6 mph ESE7.4 kmh ESE 6.9 mph11.1 kmh 29.71 in1006.1 mb - 0.00 in0.0 mm 0.00 in0.0 mm
02:25 AM 58.2°F14.6°C 55.9°F13.3°C 92% 3.5 mph ESE5.6 kmh ESE 3.5 mph5.6 kmh 29.71 in1006.1 mb - 0.00 in0.0 mm 0.00 in0.0 mm
02:30 AM 58.2°F14.6°C 55.9°F13.3°C 92% 3.5 mph ESE5.6 kmh ESE 6.9 mph11.1 kmh 29.71 in1006.1 mb - 0.00 in0.0 mm 0.00 in0.0 mm
02:35 AM 58.1°F14.5°C 55.8°F13.2°C 92% 3.5 mph ESE5.6 kmh ESE 6.9 mph11.1 kmh 29.71 in1006.1 mb - 0.00 in0.0 mm 0.00 in0.0 mm
02:40 AM 58.1°F14.5°C 55.8°F13.2°C 92% 3.5 mph ESE5.6 kmh ESE 5.8 mph9.3 kmh 29.71 in1006.1 mb - 0.00 in0.0 mm 0.00 in0.0 mm
02:45 AM 58.1°F14.5°C 55.8°F13.2°C 92% 3.5 mph ESE5.6 kmh ESE 8.1 mph13.0 kmh 29.71 in1006.1 mb - 0.00 in0.0 mm 0.00 in0.0 mm
02:50 AM 58.2°F14.6°C 55.9°F13.3°C 92% 3.5 mph SE5.6 kmh SE 4.6 mph7.4 kmh 29.71 in1006.1 mb - 0.00 in0.0 mm 0.00 in0.0 mm
02:55 AM 58.3°F14.6°C 56.0°F13.3°C 92% 3.5 mph SE5.6 kmh SE 3.5 mph5.6 kmh 29.71 in1006.1 mb - 0.00 in0.0 mm 0.00 in0.0 mm
03:00 AM 58.3°F14.6°C 56.0°F13.3°C 92% 3.5 mph ESE5.6 kmh ESE 6.9 mph11.1 kmh 29.70 in1005.8 mb - 0.00 in0.0 mm 0.00 in0.0 mm
03:10 AM 58.3°F14.6°C 56.0°F13.3°C 92% 4.6 mph ESE7.4 kmh ESE 8.1 mph13.0 kmh 29.70 in1005.8 mb - 0.00 in0.0 mm 0.00 in0.0 mm
03:15 AM 58.4°F14.7°C 56.1°F13.4°C 92% 3.5 mph SE5.6 kmh SE 6.9 mph11.1 kmh 29.70 in1005.8 mb - 0.00 in0.0 mm 0.00 in0.0 mm
03:20 AM 58.3°F14.6°C 56.0°F13.3°C 92% 2.3 mph ESE3.7 kmh ESE 3.5 mph5.6 kmh 29.70 in1005.8 mb - 0.00 in0.0 mm 0.00 in0.0 mm
03:25 AM 58.3°F14.6°C 56.0°F13.3°C 92% 3.5 mph SE5.6 kmh SE 3.5 mph5.6 kmh 29.70 in1005.8 mb - 0.00 in0.0 mm 0.00 in0.0 mm
03:30 AM 58.3°F14.6°C 56.0°F13.3°C 92% 3.5 mph SE5.6 kmh SE 9.2 mph14.8 kmh 29.70 in1005.8 mb - 0.00 in0.0 mm 0.00 in0.0 mm
03:35 AM 58.3°F14.6°C 56.0°F13.3°C 92% 3.5 mph E5.6 kmh E 5.8 mph9.3 kmh 29.70 in1005.8 mb - 0.00 in0.0 mm 0.00 in0.0 mm
03:40 AM 58.3°F14.6°C 56.0°F13.3°C 92% 3.5 mph ESE5.6 kmh ESE 6.9 mph11.1 kmh 29.70 in1005.8 mb - 0.00 in0.0 mm 0.00 in0.0 mm
03:50 AM 58.3°F14.6°C 56.0°F13.3°C 92% 3.5 mph ESE5.6 kmh ESE 3.5 mph5.6 kmh 29.70 in1005.8 mb - 0.00 in0.0 mm 0.00 in0.0 mm
03:55 AM 58.2°F14.6°C 55.9°F13.3°C 92% 3.5 mph ESE5.6 kmh ESE 4.6 mph7.4 kmh 29.69 in1005.4 mb - 0.00 in0.0 mm 0.00 in0.0 mm
04:00 AM 58.2°F14.6°C 55.9°F13.3°C 92% 3.5 mph ESE5.6 kmh ESE 6.9 mph11.1 kmh 29.69 in1005.4 mb - 0.00 in0.0 mm 0.00 in0.0 mm
04:10 AM 58.3°F14.6°C 56.0°F13.3°C 92% 3.5 mph ESE5.6 kmh ESE 5.8 mph9.3 kmh 29.69 in1005.4 mb - 0.00 in0.0 mm 0.00 in0.0 mm
04:15 AM 58.3°F14.6°C 56.0°F13.3°C 92% 2.3 mph E3.7 kmh E 3.5 mph5.6 kmh 29.69 in1005.4 mb - 0.00 in0.0 mm 0.00 in0.0 mm
04:20 AM 58.3°F14.6°C 56.0°F13.3°C 92% 1.2 mph SE1.9 kmh SE 3.5 mph5.6 kmh 29.69 in1005.4 mb - 0.00 in0.0 mm 0.00 in0.0 mm
04:25 AM 58.3°F14.6°C 56.0°F13.3°C 92% 4.6 mph SE7.4 kmh SE 6.9 mph11.1 kmh 29.69 in1005.4 mb - 0.00 in0.0 mm 0.00 in0.0 mm
04:30 AM 58.4°F14.7°C 56.1°F13.4°C 92% 3.5 mph E5.6 kmh E 9.2 mph14.8 kmh 29.69 in1005.4 mb - 0.00 in0.0 mm 0.00 in0.0 mm
04:35 AM 58.4°F14.7°C 56.1°F13.4°C 92% 3.5 mph ESE5.6 kmh ESE 6.9 mph11.1 kmh 29.69 in1005.4 mb - 0.00 in0.0 mm 0.00 in0.0 mm
04:40 AM 58.4°F14.7°C 56.1°F13.4°C 92% 3.5 mph E5.6 kmh E 3.5 mph5.6 kmh 29.69 in1005.4 mb - 0.00 in0.0 mm 0.00 in0.0 mm
04:45 AM 58.5°F14.7°C 56.2°F13.4°C 92% 3.5 mph ESE5.6 kmh ESE 6.9 mph11.1 kmh 29.69 in1005.4 mb - 0.00 in0.0 mm 0.00 in0.0 mm
04:50 AM 58.5°F14.7°C 56.2°F13.4°C 92% 3.5 mph SE5.6 kmh SE 5.8 mph9.3 kmh 29.69 in1005.4 mb - 0.00 in0.0 mm 0.00 in0.0 mm
04:55 AM 58.5°F14.7°C 56.2°F13.4°C 92% 3.5 mph SE5.6 kmh SE 4.6 mph7.4 kmh 29.69 in1005.4 mb - 0.00 in0.0 mm 0.00 in0.0 mm
05:00 AM 58.5°F14.7°C 56.2°F13.4°C 92% 3.5 mph E5.6 kmh E 5.8 mph9.3 kmh 29.68 in1005.1 mb - 0.00 in0.0 mm 0.00 in0.0 mm
05:10 AM 58.4°F14.7°C 56.1°F13.4°C 92% 2.3 mph ESE3.7 kmh ESE 6.9 mph11.1 kmh 29.69 in1005.4 mb - 0.00 in0.0 mm 0.00 in0.0 mm
05:15 AM 58.4°F14.7°C 56.1°F13.4°C 92% 3.5 mph SE5.6 kmh SE 3.5 mph5.6 kmh 29.69 in1005.4 mb - 0.00 in0.0 mm 0.00 in0.0 mm
05:20 AM 58.3°F14.6°C 56.0°F13.3°C 92% 1.2 mph E1.9 kmh E 3.5 mph5.6 kmh 29.69 in1005.4 mb - 0.00 in0.0 mm 0.00 in0.0 mm
05:25 AM 58.3°F14.6°C 56.0°F13.3°C 92% 4.6 mph ESE7.4 kmh ESE 6.9 mph11.1 kmh 29.69 in1005.4 mb - 0.00 in0.0 mm 0.00 in0.0 mm
05:30 AM 58.3°F14.6°C 56.0°F13.3°C 92% 2.3 mph E3.7 kmh E 3.5 mph5.6 kmh 29.68 in1005.1 mb - 0.00 in0.0 mm 0.00 in0.0 mm
05:35 AM 58.3°F14.6°C 56.0°F13.3°C 92% 3.5 mph ESE5.6 kmh ESE 6.9 mph11.1 kmh 29.69 in1005.4 mb - 0.00 in0.0 mm 0.00 in0.0 mm
05:40 AM 58.4°F14.7°C 56.0°F13.3°C 92% 3.5 mph E5.6 kmh E 3.5 mph5.6 kmh 29.69 in1005.4 mb - 0.00 in0.0 mm 0.00 in0.0 mm
05:45 AM 58.3°F14.6°C 56.0°F13.3°C 92% 2.3 mph E3.7 kmh E 6.9 mph11.1 kmh 29.69 in1005.4 mb - 0.00 in0.0 mm 0.00 in0.0 mm
05:50 AM 58.3°F14.6°C 56.0°F13.3°C 92% 3.5 mph ESE5.6 kmh ESE 3.5 mph5.6 kmh 29.68 in1005.1 mb - 0.00 in0.0 mm 0.00 in0.0 mm
05:55 AM 58.3°F14.6°C 55.9°F13.3°C 92% 3.5 mph E5.6 kmh E 4.6 mph7.4 kmh 29.68 in1005.1 mb - 0.00 in0.0 mm 0.00 in0.0 mm
06:00 AM 58.2°F14.6°C 55.9°F13.3°C 92% 3.5 mph ESE5.6 kmh ESE 6.9 mph11.1 kmh 29.68 in1005.1 mb - 0.00 in0.0 mm 0.00 in0.0 mm
06:10 AM 58.3°F14.6°C 56.0°F13.3°C 92% 3.5 mph E5.6 kmh E 6.9 mph11.1 kmh 29.68 in1005.1 mb - 0.00 in0.0 mm 0.00 in0.0 mm
06:15 AM 58.3°F14.6°C 56.0°F13.3°C 92% 3.5 mph E5.6 kmh E 5.8 mph9.3 kmh 29.68 in1005.1 mb - 0.00 in0.0 mm 0.00 in0.0 mm
06:20 AM 58.3°F14.6°C 56.0°F13.3°C 92% 2.3 mph E3.7 kmh E 3.5 mph5.6 kmh 29.68 in1005.1 mb - 0.00 in0.0 mm 0.00 in0.0 mm
06:25 AM 58.2°F14.6°C 55.9°F13.3°C 92% 2.3 mph E3.7 kmh E 8.1 mph13.0 kmh 29.68 in1005.1 mb - 0.00 in0.0 mm 0.00 in0.0 mm
06:30 AM 58.2°F14.6°C 55.9°F13.3°C 92% 3.5 mph E5.6 kmh E 5.8 mph9.3 kmh 29.68 in1005.1 mb - 0.00 in0.0 mm 0.00 in0.0 mm
06:35 AM 58.2°F14.6°C 55.9°F13.3°C 92% 3.5 mph ESE5.6 kmh ESE 5.8 mph9.3 kmh 29.68 in1005.1 mb - 0.00 in0.0 mm 0.00 in0.0 mm
06:40 AM 58.2°F14.6°C 55.9°F13.3°C 92% 2.3 mph E3.7 kmh E 4.6 mph7.4 kmh 29.68 in1005.1 mb - 0.00 in0.0 mm 0.00 in0.0 mm
06:45 AM 58.2°F14.6°C 55.9°F13.3°C 92% 3.5 mph E5.6 kmh E 5.8 mph9.3 kmh 29.68 in1005.1 mb - 0.00 in0.0 mm 0.00 in0.0 mm
06:50 AM 58.2°F14.6°C 55.9°F13.3°C 92% 3.5 mph E5.6 kmh E 4.6 mph7.4 kmh 29.69 in1005.4 mb - 0.00 in0.0 mm 0.00 in0.0 mm
06:55 AM 58.2°F14.6°C 55.9°F13.3°C 92% 4.6 mph E7.4 kmh E 8.1 mph13.0 kmh 29.69 in1005.4 mb - 0.00 in0.0 mm 0.00 in0.0 mm
07:00 AM 58.2°F14.6°C 55.9°F13.3°C 92% 3.5 mph E5.6 kmh E 5.8 mph9.3 kmh 29.68 in1005.1 mb - 0.00 in0.0 mm 0.00 in0.0 mm
07:10 AM 58.2°F14.6°C 55.6°F13.1°C 91% 4.6 mph E7.4 kmh E 6.9 mph11.1 kmh 29.69 in1005.4 mb - 0.00 in0.0 mm 0.00 in0.0 mm
07:15 AM 58.2°F14.6°C 55.6°F13.1°C 91% 3.5 mph E5.6 kmh E 5.8 mph9.3 kmh 29.69 in1005.4 mb - 0.00 in0.0 mm 0.00 in0.0 mm
07:20 AM 58.2°F14.6°C 55.6°F13.1°C 91% 4.6 mph E7.4 kmh E 5.8 mph9.3 kmh 29.69 in1005.4 mb - 0.00 in0.0 mm 0.00 in0.0 mm
07:25 AM 58.2°F14.6°C 55.6°F13.1°C 91% 3.5 mph ESE5.6 kmh ESE 8.1 mph13.0 kmh 29.69 in1005.4 mb - 0.00 in0.0 mm 0.00 in0.0 mm
07:30 AM 58.1°F14.5°C 55.5°F13.1°C 91% 3.5 mph ESE5.6 kmh ESE 6.9 mph11.1 kmh 29.69 in1005.4 mb - 0.00 in0.0 mm 0.00 in0.0 mm
07:35 AM 58.1°F14.5°C 55.5°F13.1°C 91% 3.5 mph E5.6 kmh E 8.1 mph13.0 kmh 29.69 in1005.4 mb - 0.00 in0.0 mm 0.00 in0.0 mm
07:40 AM 58.1°F14.5°C 55.5°F13.1°C 91% 4.6 mph ESE7.4 kmh ESE 9.2 mph14.8 kmh 29.69 in1005.4 mb - 0.00 in0.0 mm 0.00 in0.0 mm
07:45 AM 58.1°F14.5°C 55.5°F13.1°C 91% 4.6 mph E7.4 kmh E 9.2 mph14.8 kmh 29.69 in1005.4 mb - 0.00 in0.0 mm 0.00 in0.0 mm
07:50 AM 58.1°F14.5°C 55.5°F13.1°C 91% 3.5 mph SE5.6 kmh SE 4.6 mph7.4 kmh 29.69 in1005.4 mb - 0.00 in0.0 mm 0.00 in0.0 mm
07:55 AM 58.1°F14.5°C 55.5°F13.1°C 91% 3.5 mph E5.6 kmh E 8.1 mph13.0 kmh 29.69 in1005.4 mb - 0.00 in0.0 mm 0.00 in0.0 mm
08:00 AM 58.1°F14.5°C 55.5°F13.1°C 91% 3.5 mph E5.6 kmh E 5.8 mph9.3 kmh 29.69 in1005.4 mb - 0.00 in0.0 mm 0.00 in0.0 mm
08:10 AM 58.0°F14.4°C 55.4°F13.0°C 91% 5.8 mph E9.3 kmh E 9.2 mph14.8 kmh 29.69 in1005.4 mb - 0.00 in0.0 mm 0.00 in0.0 mm
08:15 AM 58.1°F14.5°C 55.5°F13.1°C 91% 5.8 mph E9.3 kmh E 8.1 mph13.0 kmh 29.69 in1005.4 mb - 0.00 in0.0 mm 0.00 in0.0 mm
08:20 AM 58.1°F14.5°C 55.2°F12.9°C 90% 5.8 mph E9.3 kmh E 11.5 mph18.5 kmh 29.69 in1005.4 mb - 0.00 in0.0 mm 0.00 in0.0 mm
08:25 AM 58.1°F14.5°C 55.2°F12.9°C 90% 4.6 mph E7.4 kmh E 10.4 mph16.7 kmh 29.69 in1005.4 mb - 0.00 in0.0 mm 0.00 in0.0 mm
08:30 AM 58.2°F14.6°C 55.3°F12.9°C 90% 4.6 mph E7.4 kmh E 8.1 mph13.0 kmh 29.69 in1005.4 mb - 0.00 in0.0 mm 0.00 in0.0 mm
08:35 AM 58.4°F14.7°C 55.5°F13.1°C 90% 3.5 mph ESE5.6 kmh ESE 5.8 mph9.3 kmh 29.69 in1005.4 mb - 0.00 in0.0 mm 0.00 in0.0 mm
08:40 AM 58.6°F14.8°C 55.3°F12.9°C 89% 4.6 mph ESE7.4 kmh ESE 8.1 mph13.0 kmh 29.69 in1005.4 mb - 0.00 in0.0 mm 0.00 in0.0 mm
08:45 AM 58.6°F14.8°C 55.4°F13.0°C 89% 5.8 mph E9.3 kmh E 9.2 mph14.8 kmh 29.69 in1005.4 mb - 0.00 in0.0 mm 0.00 in0.0 mm
08:50 AM 58.7°F14.8°C 55.5°F13.1°C 89% 3.5 mph E5.6 kmh E 9.2 mph14.8 kmh 29.69 in1005.4 mb - 0.00 in0.0 mm 0.00 in0.0 mm
08:55 AM 58.7°F14.8°C 55.5°F13.1°C 89% 4.6 mph ESE7.4 kmh ESE 6.9 mph11.1 kmh 29.69 in1005.4 mb - 0.00 in0.0 mm 0.00 in0.0 mm
09:00 AM 58.8°F14.9°C 55.6°F13.1°C 89% 3.5 mph E5.6 kmh E 9.2 mph14.8 kmh 29.69 in1005.4 mb - 0.00 in0.0 mm 0.00 in0.0 mm
09:10 AM 58.9°F14.9°C 55.7°F13.2°C 89% 4.6 mph ESE7.4 kmh ESE 8.1 mph13.0 kmh 29.69 in1005.4 mb - 0.00 in0.0 mm 0.00 in0.0 mm
09:15 AM 59.0°F15.0°C 55.8°F13.2°C 89% 6.9 mph E11.1 kmh E 11.5 mph18.5 kmh 29.69 in1005.4 mb - 0.00 in0.0 mm 0.00 in0.0 mm
09:20 AM 59.2°F15.1°C 55.9°F13.3°C 89% 5.8 mph E9.3 kmh E 6.9 mph11.1 kmh 29.69 in1005.4 mb - 0.00 in0.0 mm 0.00 in0.0 mm
09:25 AM 59.3°F15.2°C 56.1°F13.4°C 89% 5.8 mph E9.3 kmh E 9.2 mph14.8 kmh 29.69 in1005.4 mb - 0.00 in0.0 mm 0.00 in0.0 mm
09:30 AM 59.3°F15.2°C 56.1°F13.4°C 89% 4.6 mph E7.4 kmh E 8.1 mph13.0 kmh 29.70 in1005.8 mb - 0.00 in0.0 mm 0.00 in0.0 mm
09:35 AM 59.3°F15.2°C 56.1°F13.4°C 89% 2.3 mph E3.7 kmh E 4.6 mph7.4 kmh 29.70 in1005.8 mb - 0.00 in0.0 mm 0.00 in0.0 mm
09:40 AM 59.3°F15.2°C 55.7°F13.2°C 88% 5.8 mph E9.3 kmh E 6.9 mph11.1 kmh 29.70 in1005.8 mb - 0.00 in0.0 mm 0.00 in0.0 mm
09:45 AM 59.4°F15.2°C 55.8°F13.2°C 88% 6.9 mph E11.1 kmh E 11.5 mph18.5 kmh 29.70 in1005.8 mb - 0.00 in0.0 mm 0.00 in0.0 mm
09:50 AM 59.4°F15.2°C 55.8°F13.2°C 88% 3.5 mph E5.6 kmh E 8.1 mph13.0 kmh 29.70 in1005.8 mb - 0.00 in0.0 mm 0.00 in0.0 mm
09:55 AM 59.6°F15.3°C 56.4°F13.6°C 89% 3.5 mph E5.6 kmh E 6.9 mph11.1 kmh 29.70 in1005.8 mb - 0.00 in0.0 mm 0.00 in0.0 mm
10:00 AM 59.7°F15.4°C 56.1°F13.4°C 88% 4.6 mph E7.4 kmh E 6.9 mph11.1 kmh 29.70 in1005.8 mb - 0.00 in0.0 mm 0.00 in0.0 mm
10:10 AM 59.7°F15.4°C 56.1°F13.4°C 88% 4.6 mph E7.4 kmh E 6.9 mph11.1 kmh 29.70 in1005.8 mb - 0.00 in0.0 mm 0.00 in0.0 mm
10:15 AM 59.7°F15.4°C 56.1°F13.4°C 88% 4.6 mph E7.4 kmh E 8.1 mph13.0 kmh 29.70 in1005.8 mb - 0.00 in0.0 mm 0.00 in0.0 mm
10:20 AM 59.8°F15.4°C 56.2°F13.4°C 88% 5.8 mph E9.3 kmh E 9.2 mph14.8 kmh 29.70 in1005.8 mb - 0.00 in0.0 mm 0.00 in0.0 mm
10:25 AM 59.8°F15.4°C 56.3°F13.5°C 88% 4.6 mph E7.4 kmh E 8.1 mph13.0 kmh 29.70 in1005.8 mb - 0.00 in0.0 mm 0.00 in0.0 mm
10:30 AM 59.8°F15.4°C 56.2°F13.4°C 88% 4.6 mph ESE7.4 kmh ESE 6.9 mph11.1 kmh 29.70 in1005.8 mb - 0.00 in0.0 mm 0.00 in0.0 mm
10:35 AM 59.8°F15.4°C 56.2°F13.4°C 88% 3.5 mph E5.6 kmh E 5.8 mph9.3 kmh 29.70 in1005.8 mb - 0.00 in0.0 mm 0.00 in0.0 mm
10:40 AM 59.8°F15.4°C 56.2°F13.4°C 88% 4.6 mph E7.4 kmh E 8.1 mph13.0 kmh 29.70 in1005.8 mb - 0.00 in0.0 mm 0.00 in0.0 mm
10:45 AM 59.7°F15.4°C 56.2°F13.4°C 88% 5.8 mph E9.3 kmh E 9.2 mph14.8 kmh 29.70 in1005.8 mb - 0.00 in0.0 mm 0.00 in0.0 mm
10:50 AM 59.7°F15.4°C 56.2°F13.4°C 88% 3.5 mph ESE5.6 kmh ESE 4.6 mph7.4 kmh 29.70 in1005.8 mb - 0.00 in0.0 mm 0.00 in0.0 mm
10:55 AM 59.8°F15.4°C 56.2°F13.4°C 88% 3.5 mph E5.6 kmh E 5.8 mph9.3 kmh 29.70 in1005.8 mb - 0.00 in0.0 mm 0.00 in0.0 mm
11:00 AM 60.0°F15.6°C 56.4°F13.6°C 88% 4.6 mph E7.4 kmh E 8.1 mph13.0 kmh 29.70 in1005.8 mb - 0.00 in0.0 mm 0.00 in0.0 mm
11:10 AM 60.3°F15.7°C 56.4°F13.6°C 87% 3.5 mph E5.6 kmh E 8.1 mph13.0 kmh 29.70 in1005.8 mb - 0.00 in0.0 mm 0.00 in0.0 mm
11:15 AM 60.2°F15.7°C 56.3°F13.5°C 87% 4.6 mph E7.4 kmh E 6.9 mph11.1 kmh 29.70 in1005.8 mb - 0.00 in0.0 mm 0.00 in0.0 mm
11:20 AM 60.2°F15.7°C 56.3°F13.5°C 87% 3.5 mph E5.6 kmh E 3.5 mph5.6 kmh 29.70 in1005.8 mb - 0.00 in0.0 mm 0.00 in0.0 mm
11:25 AM 60.2°F15.7°C 56.3°F13.5°C 87% 4.6 mph ESE7.4 kmh ESE 5.8 mph9.3 kmh 29.70 in1005.8 mb - 0.00 in0.0 mm 0.00 in0.0 mm
11:30 AM 60.1°F15.6°C 56.2°F13.4°C 87% 4.6 mph E7.4 kmh E 5.8 mph9.3 kmh 29.70 in1005.8 mb - 0.00 in0.0 mm 0.00 in0.0 mm
11:35 AM 60.1°F15.6°C 56.2°F13.4°C 87% 4.6 mph E7.4 kmh E 9.2 mph14.8 kmh 29.70 in1005.8 mb - 0.00 in0.0 mm 0.00 in0.0 mm
11:40 AM 60.1°F15.6°C 56.3°F13.5°C 87% 5.8 mph E9.3 kmh E 9.2 mph14.8 kmh 29.70 in1005.8 mb - 0.00 in0.0 mm 0.00 in0.0 mm
11:45 AM 60.1°F15.6°C 56.2°F13.4°C 87% 3.5 mph E5.6 kmh E 6.9 mph11.1 kmh 29.70 in1005.8 mb - 0.00 in0.0 mm 0.00 in0.0 mm
11:50 AM 60.1°F15.6°C 56.3°F13.5°C 87% 2.3 mph E3.7 kmh E 3.5 mph5.6 kmh 29.70 in1005.8 mb - 0.00 in0.0 mm 0.00 in0.0 mm
11:55 AM 60.2°F15.7°C 56.3°F13.5°C 87% 3.5 mph ESE5.6 kmh ESE 4.6 mph7.4 kmh 29.70 in1005.8 mb - 0.00 in0.0 mm 0.00 in0.0 mm
12:00 PM 60.1°F15.6°C 56.6°F13.7°C 88% 3.5 mph ESE5.6 kmh ESE 5.8 mph9.3 kmh 29.70 in1005.8 mb - 0.00 in0.0 mm 0.00 in0.0 mm
12:10 PM 59.9°F15.5°C 56.6°F13.7°C 89% 5.8 mph E9.3 kmh E 10.4 mph16.7 kmh 29.71 in1006.1 mb - 0.05 in1.3 mm 0.05 in1.3 mm
12:15 PM 59.6°F15.3°C 56.4°F13.6°C 89% 2.3 mph E3.7 kmh E 3.5 mph5.6 kmh 29.71 in1006.1 mb - 0.09 in2.3 mm 0.09 in2.3 mm
12:20 PM 59.4°F15.2°C 56.5°F13.6°C 90% 3.5 mph E5.6 kmh E 9.2 mph14.8 kmh 29.71 in1006.1 mb - 0.09 in2.3 mm 0.09 in2.3 mm
12:25 PM 59.3°F15.2°C 56.4°F13.6°C 90% 4.6 mph E7.4 kmh E 6.9 mph11.1 kmh 29.71 in1006.1 mb - 0.09 in2.3 mm 0.09 in2.3 mm
12:30 PM 59.3°F15.2°C 56.7°F13.7°C 91% 3.5 mph E5.6 kmh E 5.8 mph9.3 kmh 29.71 in1006.1 mb - 0.09 in2.3 mm 0.09 in2.3 mm
12:35 PM 59.4°F15.2°C 56.8°F13.8°C 91% 5.8 mph E9.3 kmh E 8.1 mph13.0 kmh 29.70 in1005.8 mb - 0.09 in2.3 mm 0.09 in2.3 mm
12:40 PM 59.3°F15.2°C 56.7°F13.7°C 91% 4.6 mph E7.4 kmh E 8.1 mph13.0 kmh 29.70 in1005.8 mb - 0.10 in2.5 mm 0.10 in2.5 mm
12:45 PM 59.2°F15.1°C 56.6°F13.7°C 91% 5.8 mph E9.3 kmh E 8.1 mph13.0 kmh 29.70 in1005.8 mb - 0.14 in3.6 mm 0.14 in3.6 mm
12:50 PM 59.2°F15.1°C 56.5°F13.6°C 91% 5.8 mph E9.3 kmh E 9.2 mph14.8 kmh 29.70 in1005.8 mb - 0.17 in4.3 mm 0.17 in4.3 mm
12:55 PM 59.1°F15.1°C 56.4°F13.6°C 91% 5.8 mph E9.3 kmh E 9.2 mph14.8 kmh 29.70 in1005.8 mb - 0.21 in5.3 mm 0.21 in5.3 mm
01:00 PM 59.0°F15.0°C 56.4°F13.6°C 91% 6.9 mph E11.1 kmh E 10.4 mph16.7 kmh 29.70 in1005.8 mb - 0.22 in5.6 mm 0.22 in5.6 mm
01:10 PM 58.8°F14.9°C 56.2°F13.4°C 91% 4.6 mph E7.4 kmh E 6.9 mph11.1 kmh 29.70 in1005.8 mb - 0.28 in7.1 mm 0.32 in8.1 mm
01:15 PM 58.8°F14.9°C 56.1°F13.4°C 91% 3.5 mph E5.6 kmh E 3.5 mph5.6 kmh 29.70 in1005.8 mb - 0.25 in6.4 mm 0.34 in8.6 mm
01:20 PM 58.8°F14.9°C 56.2°F13.4°C 91% 3.5 mph E5.6 kmh E 5.8 mph9.3 kmh 29.70 in1005.8 mb - 0.25 in6.4 mm 0.35 in8.9 mm
01:25 PM 58.8°F14.9°C 56.2°F13.4°C 91% 2.3 mph E3.7 kmh E 3.5 mph5.6 kmh 29.70 in1005.8 mb - 0.29 in7.4 mm 0.39 in9.9 mm
01:30 PM 58.8°F14.9°C 56.2°F13.4°C 91% 2.3 mph E3.7 kmh E 3.5 mph5.6 kmh 29.70 in1005.8 mb - 0.30 in7.6 mm 0.39 in9.9 mm
01:35 PM 58.9°F14.9°C 56.3°F13.5°C 91% 2.3 mph SE3.7 kmh SE 3.5 mph5.6 kmh 29.71 in1006.1 mb - 0.31 in7.9 mm 0.40 in10.2 mm
01:40 PM 58.9°F14.9°C 56.3°F13.5°C 91% 3.5 mph E5.6 kmh E 8.1 mph13.0 kmh 29.71 in1006.1 mb - 0.31 in7.9 mm 0.41 in10.4 mm
01:45 PM 58.9°F14.9°C 56.3°F13.5°C 91% 3.5 mph E5.6 kmh E 4.6 mph7.4 kmh 29.71 in1006.1 mb - 0.28 in7.1 mm 0.42 in10.7 mm
01:50 PM 58.9°F14.9°C 56.3°F13.5°C 91% 2.3 mph E3.7 kmh E 3.5 mph5.6 kmh 29.71 in1006.1 mb - 0.25 in6.4 mm 0.42 in10.7 mm
01:55 PM 58.8°F14.9°C 56.2°F13.4°C 91% 2.3 mph E3.7 kmh E 3.5 mph5.6 kmh 29.71 in1006.1 mb - 0.21 in5.3 mm 0.42 in10.7 mm
02:00 PM 58.8°F14.9°C 56.2°F13.4°C 91% 2.3 mph SE3.7 kmh SE 5.8 mph9.3 kmh 29.71 in1006.1 mb - 0.20 in5.1 mm 0.42 in10.7 mm
02:10 PM 59.0°F15.0°C 56.4°F13.6°C 91% 2.3 mph ESE3.7 kmh ESE 3.5 mph5.6 kmh 29.71 in1006.1 mb - 0.10 in2.5 mm 0.43 in10.9 mm
02:15 PM 59.0°F15.0°C 56.4°F13.6°C 91% 2.3 mph E3.7 kmh E 3.5 mph5.6 kmh 29.71 in1006.1 mb - 0.11 in2.8 mm 0.45 in11.4 mm
02:20 PM 58.9°F14.9°C 56.3°F13.5°C 91% 3.5 mph E5.6 kmh E 5.8 mph9.3 kmh 29.70 in1005.8 mb - 0.13 in3.3 mm 0.47 in11.9 mm
02:25 PM 58.9°F14.9°C 56.3°F13.5°C 91% 1.2 mph SE1.9 kmh SE 3.5 mph5.6 kmh 29.71 in1006.1 mb - 0.10 in2.5 mm 0.48 in12.2 mm
02:30 PM 59.0°F15.0°C 56.7°F13.7°C 92% 2.3 mph E3.7 kmh E 3.5 mph5.6 kmh 29.70 in1005.8 mb - 0.09 in2.3 mm 0.48 in12.2 mm
02:35 PM 59.1°F15.1°C 56.8°F13.8°C 92% 2.3 mph SE3.7 kmh SE 4.6 mph7.4 kmh 29.71 in1006.1 mb - 0.08 in2.0 mm 0.48 in12.2 mm
02:40 PM 59.2°F15.1°C 56.9°F13.8°C 92% 1.2 mph SE1.9 kmh SE 3.5 mph5.6 kmh 29.71 in1006.1 mb - 0.07 in1.8 mm 0.48 in12.2 mm
02:45 PM 59.3°F15.2°C 56.9°F13.8°C 92% 1.2 mph SE1.9 kmh SE 2.3 mph3.7 kmh 29.70 in1005.8 mb - 0.06 in1.5 mm 0.48 in12.2 mm
02:50 PM 59.3°F15.2°C 56.9°F13.8°C 92% 1.2 mph SE1.9 kmh SE 2.3 mph3.7 kmh 29.70 in1005.8 mb - 0.06 in1.5 mm 0.48 in12.2 mm
02:55 PM 59.2°F15.1°C 56.9°F13.8°C 92% 1.2 mph E1.9 kmh E 3.5 mph5.6 kmh 29.71 in1006.1 mb - 0.07 in1.8 mm 0.49 in12.4 mm
03:00 PM 59.2°F15.1°C 56.9°F13.8°C 92% 2.3 mph E3.7 kmh E 3.5 mph5.6 kmh 29.70 in1005.8 mb - 0.09 in2.3 mm 0.50 in12.7 mm
03:10 PM 59.2°F15.1°C 56.9°F13.8°C 92% 2.3 mph ESE3.7 kmh ESE 3.5 mph5.6 kmh 29.70 in1005.8 mb - 0.13 in3.3 mm 0.56 in14.2 mm
03:15 PM 59.2°F15.1°C 56.8°F13.8°C 92% 2.3 mph NE3.7 kmh NE 3.5 mph5.6 kmh 29.70 in1005.8 mb - 0.13 in3.3 mm 0.58 in14.7 mm
03:20 PM 59.1°F15.1°C 56.8°F13.8°C 92% 2.3 mph E3.7 kmh E 3.5 mph5.6 kmh 29.70 in1005.8 mb - 0.12 in3.0 mm 0.58 in14.7 mm
03:25 PM 59.2°F15.1°C 56.9°F13.8°C 92% 2.3 mph ESE3.7 kmh ESE 3.5 mph5.6 kmh 29.70 in1005.8 mb - 0.10 in2.5 mm 0.58 in14.7 mm
03:30 PM 59.4°F15.2°C 57.4°F14.1°C 93% 3.5 mph ENE5.6 kmh ENE 6.9 mph11.1 kmh 29.70 in1005.8 mb - 0.11 in2.8 mm 0.59 in15.0 mm
03:35 PM 59.4°F15.2°C 57.1°F13.9°C 92% 2.3 mph E3.7 kmh E 3.5 mph5.6 kmh 29.70 in1005.8 mb - 0.11 in2.8 mm 0.59 in15.0 mm
03:40 PM 59.4°F15.2°C 57.1°F13.9°C 92% 1.2 mph E1.9 kmh E 3.5 mph5.6 kmh 29.70 in1005.8 mb - 0.12 in3.0 mm 0.60 in15.2 mm
03:45 PM 59.4°F15.2°C 57.1°F13.9°C 92% 2.3 mph E3.7 kmh E 3.5 mph5.6 kmh 29.70 in1005.8 mb - 0.12 in3.0 mm 0.60 in15.2 mm
03:50 PM 59.5°F15.3°C 57.2°F14.0°C 92% 2.3 mph ESE3.7 kmh ESE 3.5 mph5.6 kmh 29.70 in1005.8 mb - 0.12 in3.0 mm 0.60 in15.2 mm
03:55 PM 59.5°F15.3°C 57.2°F14.0°C 92% 2.3 mph E3.7 kmh E 3.5 mph5.6 kmh 29.70 in1005.8 mb - 0.11 in2.8 mm 0.60 in15.2 mm
04:00 PM 59.4°F15.2°C 57.1°F13.9°C 92% 2.3 mph ENE3.7 kmh ENE 3.5 mph5.6 kmh 29.70 in1005.8 mb - 0.10 in2.5 mm 0.60 in15.2 mm
04:10 PM 59.4°F15.2°C 57.1°F13.9°C 92% 3.5 mph E5.6 kmh E 6.9 mph11.1 kmh 29.70 in1005.8 mb - 0.05 in1.3 mm 0.60 in15.2 mm
04:15 PM 59.4°F15.2°C 57.1°F13.9°C 92% 2.3 mph E3.7 kmh E 3.5 mph5.6 kmh 29.70 in1005.8 mb - 0.03 in0.8 mm 0.60 in15.2 mm
04:20 PM 59.5°F15.3°C 57.2°F14.0°C 92% 1.2 mph E1.9 kmh E 2.3 mph3.7 kmh 29.70 in1005.8 mb - 0.02 in0.5 mm 0.60 in15.2 mm
04:25 PM 59.5°F15.3°C 57.2°F14.0°C 92% 1.2 mph E1.9 kmh E 3.5 mph5.6 kmh 29.70 in1005.8 mb - 0.02 in0.5 mm 0.60 in15.2 mm
04:30 PM 59.5°F15.3°C 57.2°F14.0°C 92% 3.5 mph ESE5.6 kmh ESE 5.8 mph9.3 kmh 29.71 in1006.1 mb - 0.01 in0.3 mm 0.60 in15.2 mm
04:35 PM 59.4°F15.2°C 57.1°F13.9°C 92% 1.2 mph E1.9 kmh E 3.5 mph5.6 kmh 29.71 in1006.1 mb - 0.01 in0.3 mm 0.60 in15.2 mm
04:40 PM 59.4°F15.2°C 57.1°F13.9°C 92% 2.3 mph E3.7 kmh E 5.8 mph9.3 kmh 29.70 in1005.8 mb - 0.01 in0.3 mm 0.60 in15.2 mm
04:45 PM 59.4°F15.2°C 57.1°F13.9°C 92% 1.2 mph E1.9 kmh E 2.3 mph3.7 kmh 29.70 in1005.8 mb - 0.00 in0.0 mm 0.60 in15.2 mm
04:50 PM 59.5°F15.3°C 57.1°F13.9°C 92% 1.2 mph E1.9 kmh E 3.5 mph5.6 kmh 29.71 in1006.1 mb - 0.00 in0.0 mm 0.60 in15.2 mm
04:55 PM 59.4°F15.2°C 57.0°F13.9°C 92% 3.5 mph E5.6 kmh E 6.9 mph11.1 kmh 29.71 in1006.1 mb - 0.00 in0.0 mm 0.60 in15.2 mm
05:00 PM 59.2°F15.1°C 56.9°F13.8°C 92% 3.5 mph E5.6 kmh E 6.9 mph11.1 kmh 29.71 in1006.1 mb - 0.00 in0.0 mm 0.60 in15.2 mm
05:10 PM 59.2°F15.1°C 56.9°F13.8°C 92% 3.5 mph E5.6 kmh E 4.6 mph7.4 kmh 29.71 in1006.1 mb - 0.00 in0.0 mm 0.60 in15.2 mm
05:15 PM 59.1°F15.1°C 56.8°F13.8°C 92% 1.2 mph E1.9 kmh E 2.3 mph3.7 kmh 29.71 in1006.1 mb - 0.00 in0.0 mm 0.60 in15.2 mm
05:20 PM 59.2°F15.1°C 56.9°F13.8°C 92% 2.3 mph E3.7 kmh E 2.3 mph3.7 kmh 29.70 in1005.8 mb - 0.00 in0.0 mm 0.60 in15.2 mm
05:25 PM 59.2°F15.1°C 56.9°F13.8°C 92% 2.3 mph E3.7 kmh E 3.5 mph5.6 kmh 29.70 in1005.8 mb - 0.00 in0.0 mm 0.60 in15.2 mm
05:30 PM 59.1°F15.1°C 56.8°F13.8°C 92% 2.3 mph E3.7 kmh E 3.5 mph5.6 kmh 29.70 in1005.8 mb - 0.00 in0.0 mm 0.60 in15.2 mm
05:35 PM 59.2°F15.1°C 56.9°F13.8°C 92% 2.3 mph E3.7 kmh E 3.5 mph5.6 kmh 29.70 in1005.8 mb - 0.00 in0.0 mm 0.60 in15.2 mm
05:40 PM 59.2°F15.1°C 56.9°F13.8°C 92% 2.3 mph E3.7 kmh E 3.5 mph5.6 kmh 29.71 in1006.1 mb - 0.00 in0.0 mm 0.60 in15.2 mm
05:45 PM 59.2°F15.1°C 57.2°F14.0°C 93% 1.2 mph ENE1.9 kmh ENE 2.3 mph3.7 kmh 29.71 in1006.1 mb - 0.00 in0.0 mm 0.60 in15.2 mm
05:50 PM 59.1°F15.1°C 56.8°F13.8°C 92% 2.3 mph E3.7 kmh E 3.5 mph5.6 kmh 29.71 in1006.1 mb - 0.00 in0.0 mm 0.60 in15.2 mm
05:55 PM 59.0°F15.0°C 56.7°F13.7°C 92% 1.2 mph E1.9 kmh E 2.3 mph3.7 kmh 29.71 in1006.1 mb - 0.00 in0.0 mm 0.60 in15.2 mm
06:00 PM 59.0°F15.0°C 56.7°F13.7°C 92% 2.3 mph E3.7 kmh E 4.6 mph7.4 kmh 29.71 in1006.1 mb - 0.00 in0.0 mm 0.60 in15.2 mm
06:10 PM 58.8°F14.9°C 56.5°F13.6°C 92% 2.3 mph ESE3.7 kmh ESE 3.5 mph5.6 kmh 29.71 in1006.1 mb - 0.00 in0.0 mm 0.60 in15.2 mm
06:15 PM 58.7°F14.8°C 56.7°F13.7°C 93% 2.3 mph E3.7 kmh E 3.5 mph5.6 kmh 29.71 in1006.1 mb - 0.00 in0.0 mm 0.60 in15.2 mm
06:20 PM 58.7°F14.8°C 56.7°F13.7°C 93% 2.3 mph ESE3.7 kmh ESE 3.5 mph5.6 kmh 29.71 in1006.1 mb - 0.00 in0.0 mm 0.60 in15.2 mm
06:25 PM 58.5°F14.7°C 56.5°F13.6°C 93% 2.3 mph ENE3.7 kmh ENE 2.3 mph3.7 kmh 29.71 in1006.1 mb - 0.00 in0.0 mm 0.60 in15.2 mm
06:30 PM 58.5°F14.7°C 56.4°F13.6°C 93% 1.2 mph ENE1.9 kmh ENE 2.3 mph3.7 kmh 29.72 in1006.4 mb - 0.00 in0.0 mm 0.60 in15.2 mm
06:35 PM 58.3°F14.6°C 56.3°F13.5°C 93% 2.3 mph NE3.7 kmh NE 3.5 mph5.6 kmh 29.72 in1006.4 mb - 0.00 in0.0 mm 0.60 in15.2 mm
06:40 PM 58.3°F14.6°C 56.2°F13.4°C 93% 2.3 mph E3.7 kmh E 4.6 mph7.4 kmh 29.71 in1006.1 mb - 0.00 in0.0 mm 0.60 in15.2 mm
06:45 PM 58.2°F14.6°C 56.2°F13.4°C 93% 2.3 mph ENE3.7 kmh ENE 3.5 mph5.6 kmh 29.72 in1006.4 mb - 0.00 in0.0 mm 0.60 in15.2 mm
06:50 PM 58.1°F14.5°C 56.1°F13.4°C 93% 2.3 mph ENE3.7 kmh ENE 3.5 mph5.6 kmh 29.72 in1006.4 mb - 0.00 in0.0 mm 0.60 in15.2 mm
06:55 PM 58.1°F14.5°C 56.1°F13.4°C 93% 1.2 mph ENE1.9 kmh ENE 3.5 mph5.6 kmh 29.72 in1006.4 mb - 0.00 in0.0 mm 0.60 in15.2 mm
07:00 PM 58.1°F14.5°C 56.1°F13.4°C 93% 2.3 mph E3.7 kmh E 3.5 mph5.6 kmh 29.72 in1006.4 mb - 0.00 in0.0 mm 0.60 in15.2 mm
07:10 PM 58.2°F14.6°C 56.2°F13.4°C 93% 2.3 mph ENE3.7 kmh ENE 3.5 mph5.6 kmh 29.72 in1006.4 mb - 0.00 in0.0 mm 0.60 in15.2 mm
07:15 PM 58.2°F14.6°C 56.2°F13.4°C 93% 3.5 mph ENE5.6 kmh ENE 4.6 mph7.4 kmh 29.72 in1006.4 mb - 0.00 in0.0 mm 0.60 in15.2 mm
07:20 PM 58.2°F14.6°C 56.2°F13.4°C 93% 2.3 mph E3.7 kmh E 6.9 mph11.1 kmh 29.72 in1006.4 mb - 0.00 in0.0 mm 0.60 in15.2 mm
07:25 PM 58.2°F14.6°C 56.2°F13.4°C 93% 3.5 mph E5.6 kmh E 4.6 mph7.4 kmh 29.72 in1006.4 mb - 0.00 in0.0 mm 0.60 in15.2 mm
07:30 PM 58.3°F14.6°C 56.3°F13.5°C 93% 2.3 mph E3.7 kmh E 3.5 mph5.6 kmh 29.72 in1006.4 mb - 0.00 in0.0 mm 0.60 in15.2 mm
07:35 PM 58.2°F14.6°C 56.2°F13.4°C 93% 3.5 mph E5.6 kmh E 3.5 mph5.6 kmh 29.72 in1006.4 mb - 0.00 in0.0 mm 0.60 in15.2 mm
07:40 PM 58.2°F14.6°C 56.2°F13.4°C 93% 3.5 mph E5.6 kmh E 8.1 mph13.0 kmh 29.72 in1006.4 mb - 0.00 in0.0 mm 0.60 in15.2 mm
07:45 PM 58.1°F14.5°C 56.1°F13.4°C 93% 4.6 mph ENE7.4 kmh ENE 6.9 mph11.1 kmh 29.72 in1006.4 mb - 0.00 in0.0 mm 0.60 in15.2 mm
07:50 PM 58.1°F14.5°C 56.1°F13.4°C 93% 3.5 mph E5.6 kmh E 8.1 mph13.0 kmh 29.72 in1006.4 mb - 0.00 in0.0 mm 0.60 in15.2 mm
07:55 PM 58.0°F14.4°C 56.0°F13.3°C 93% 4.6 mph E7.4 kmh E 5.8 mph9.3 kmh 29.72 in1006.4 mb - 0.00 in0.0 mm 0.60 in15.2 mm
08:00 PM 58.0°F14.4°C 56.0°F13.3°C 93% 4.6 mph E7.4 kmh E 6.9 mph11.1 kmh 29.72 in1006.4 mb - 0.00 in0.0 mm 0.60 in15.2 mm
08:10 PM 58.1°F14.5°C 56.1°F13.4°C 93% 2.3 mph E3.7 kmh E 4.6 mph7.4 kmh 29.72 in1006.4 mb - 0.00 in0.0 mm 0.60 in15.2 mm
08:15 PM 58.1°F14.5°C 56.1°F13.4°C 93% 2.3 mph E3.7 kmh E 4.6 mph7.4 kmh 29.72 in1006.4 mb - 0.00 in0.0 mm 0.60 in15.2 mm
08:20 PM 58.1°F14.5°C 56.1°F13.4°C 93% 2.3 mph E3.7 kmh E 3.5 mph5.6 kmh 29.72 in1006.4 mb - 0.00 in0.0 mm 0.60 in15.2 mm
08:25 PM 58.1°F14.5°C 56.1°F13.4°C 93% 3.5 mph E5.6 kmh E 3.5 mph5.6 kmh 29.73 in1006.8 mb - 0.00 in0.0 mm 0.60 in15.2 mm
08:30 PM 58.1°F14.5°C 56.1°F13.4°C 93% 3.5 mph E5.6 kmh E 5.8 mph9.3 kmh 29.72 in1006.4 mb - 0.00 in0.0 mm 0.60 in15.2 mm
08:35 PM 58.1°F14.5°C 56.1°F13.4°C 93% 2.3 mph E3.7 kmh E 5.8 mph9.3 kmh 29.72 in1006.4 mb - 0.00 in0.0 mm 0.60 in15.2 mm
08:40 PM 58.1°F14.5°C 56.1°F13.4°C 93% 2.3 mph E3.7 kmh E 3.5 mph5.6 kmh 29.72 in1006.4 mb - 0.00 in0.0 mm 0.60 in15.2 mm
08:45 PM 58.1°F14.5°C 56.1°F13.4°C 93% 2.3 mph E3.7 kmh E 3.5 mph5.6 kmh 29.72 in1006.4 mb - 0.00 in0.0 mm 0.60 in15.2 mm
08:50 PM 58.0°F14.4°C 56.0°F13.3°C 93% 3.5 mph E5.6 kmh E 3.5 mph5.6 kmh 29.72 in1006.4 mb - 0.00 in0.0 mm 0.60 in15.2 mm
08:55 PM 58.1°F14.5°C 56.1°F13.4°C 93% 3.5 mph E5.6 kmh E 6.9 mph11.1 kmh 29.73 in1006.8 mb - 0.00 in0.0 mm 0.60 in15.2 mm
09:00 PM 58.1°F14.5°C 56.1°F13.4°C 93% 2.3 mph E3.7 kmh E 3.5 mph5.6 kmh 29.72 in1006.4 mb - 0.00 in0.0 mm 0.60 in15.2 mm
09:10 PM 58.1°F14.5°C 56.1°F13.4°C 93% 2.3 mph E3.7 kmh E 4.6 mph7.4 kmh 29.72 in1006.4 mb - 0.00 in0.0 mm 0.60 in15.2 mm
09:15 PM 58.1°F14.5°C 56.1°F13.4°C 93% 2.3 mph E3.7 kmh E 3.5 mph5.6 kmh 29.72 in1006.4 mb - 0.00 in0.0 mm 0.60 in15.2 mm
09:20 PM 58.1°F14.5°C 56.1°F13.4°C 93% 2.3 mph E3.7 kmh E 3.5 mph5.6 kmh 29.73 in1006.8 mb - 0.00 in0.0 mm 0.60 in15.2 mm
09:25 PM 58.1°F14.5°C 56.1°F13.4°C 93% 2.3 mph E3.7 kmh E 3.5 mph5.6 kmh 29.72 in1006.4 mb - 0.00 in0.0 mm 0.60 in15.2 mm
09:30 PM 58.1°F14.5°C 56.1°F13.4°C 93% 3.5 mph E5.6 kmh E 4.6 mph7.4 kmh 29.73 in1006.8 mb - 0.00 in0.0 mm 0.60 in15.2 mm
09:35 PM 58.1°F14.5°C 56.1°F13.4°C 93% 2.3 mph E3.7 kmh E 3.5 mph5.6 kmh 29.73 in1006.8 mb - 0.00 in0.0 mm 0.60 in15.2 mm
09:40 PM 58.1°F14.5°C 56.1°F13.4°C 93% 2.3 mph E3.7 kmh E 4.6 mph7.4 kmh 29.73 in1006.8 mb - 0.00 in0.0 mm 0.60 in15.2 mm
09:45 PM 58.1°F14.5°C 56.1°F13.4°C 93% 3.5 mph E5.6 kmh E 6.9 mph11.1 kmh 29.73 in1006.8 mb - 0.00 in0.0 mm 0.60 in15.2 mm
09:50 PM 58.1°F14.5°C 56.1°F13.4°C 93% 3.5 mph E5.6 kmh E 5.8 mph9.3 kmh 29.73 in1006.8 mb - 0.00 in0.0 mm 0.60 in15.2 mm
09:55 PM 58.1°F14.5°C 56.1°F13.4°C 93% 2.3 mph E3.7 kmh E 3.5 mph5.6 kmh 29.73 in1006.8 mb - 0.00 in0.0 mm 0.60 in15.2 mm
10:00 PM 58.1°F14.5°C 56.1°F13.4°C 93% 1.2 mph E1.9 kmh E 3.5 mph5.6 kmh 29.73 in1006.8 mb - 0.00 in0.0 mm 0.60 in15.2 mm
10:10 PM 58.1°F14.5°C 56.1°F13.4°C 93% 2.3 mph E3.7 kmh E 4.6 mph7.4 kmh 29.73 in1006.8 mb - 0.00 in0.0 mm 0.60 in15.2 mm
10:15 PM 58.1°F14.5°C 56.1°F13.4°C 93% 1.2 mph E1.9 kmh E 2.3 mph3.7 kmh 29.73 in1006.8 mb - 0.00 in0.0 mm 0.60 in15.2 mm
10:20 PM 58.1°F14.5°C 56.1°F13.4°C 93% 2.3 mph E3.7 kmh E 3.5 mph5.6 kmh 29.73 in1006.8 mb - 0.00 in0.0 mm 0.60 in15.2 mm
10:25 PM 58.1°F14.5°C 56.1°F13.4°C 93% 2.3 mph E3.7 kmh E 3.5 mph5.6 kmh 29.73 in1006.8 mb - 0.00 in0.0 mm 0.60 in15.2 mm
10:30 PM 58.1°F14.5°C 56.1°F13.4°C 93% 3.5 mph E5.6 kmh E 4.6 mph7.4 kmh 29.73 in1006.8 mb - 0.00 in0.0 mm 0.60 in15.2 mm
10:35 PM 58.1°F14.5°C 56.1°F13.4°C 93% 1.2 mph E1.9 kmh E 2.3 mph3.7 kmh 29.73 in1006.8 mb - 0.00 in0.0 mm 0.60 in15.2 mm
10:40 PM 58.1°F14.5°C 56.1°F13.4°C 93% 1.2 mph E1.9 kmh E 3.5 mph5.6 kmh 29.73 in1006.8 mb - 0.00 in0.0 mm 0.60 in15.2 mm
10:45 PM 58.1°F14.5°C 56.1°F13.4°C 93% 2.3 mph SE3.7 kmh SE 3.5 mph5.6 kmh 29.73 in1006.8 mb - 0.00 in0.0 mm 0.60 in15.2 mm
10:50 PM 58.1°F14.5°C 56.1°F13.4°C 93% 3.5 mph E5.6 kmh E 6.9 mph11.1 kmh 29.73 in1006.8 mb - 0.00 in0.0 mm 0.60 in15.2 mm
10:55 PM 58.1°F14.5°C 56.1°F13.4°C 93% 2.3 mph SE3.7 kmh SE 3.5 mph5.6 kmh 29.73 in1006.8 mb - 0.00 in0.0 mm 0.60 in15.2 mm
11:00 PM 58.1°F14.5°C 56.1°F13.4°C 93% 3.5 mph E5.6 kmh E 5.8 mph9.3 kmh 29.73 in1006.8 mb - 0.00 in0.0 mm 6.65 in168.9 mm
11:10 PM 58.1°F14.5°C 56.1°F13.4°C 93% 3.5 mph ESE5.6 kmh ESE 4.6 mph7.4 kmh 29.73 in1006.8 mb - 0.00 in0.0 mm 6.65 in168.9 mm
11:15 PM 58.1°F14.5°C 56.1°F13.4°C 93% 2.3 mph E3.7 kmh E 3.5 mph5.6 kmh 29.73 in1006.8 mb - 0.00 in0.0 mm 6.65 in168.9 mm
11:20 PM 58.1°F14.5°C 56.0°F13.3°C 93% 2.3 mph ENE3.7 kmh ENE 3.5 mph5.6 kmh 29.73 in1006.8 mb - 0.00 in0.0 mm 6.65 in168.9 mm
11:25 PM 58.1°F14.5°C 56.1°F13.4°C 93% 2.3 mph ESE3.7 kmh ESE 5.8 mph9.3 kmh 29.73 in1006.8 mb - 0.00 in0.0 mm 6.65 in168.9 mm
11:30 PM 58.1°F14.5°C 56.1°F13.4°C 93% 2.3 mph E3.7 kmh E 6.9 mph11.1 kmh 29.73 in1006.8 mb - 0.00 in0.0 mm 6.65 in168.9 mm
11:35 PM 58.1°F14.5°C 56.1°F13.4°C 93% 1.2 mph E1.9 kmh E 3.5 mph5.6 kmh 29.73 in1006.8 mb - 0.00 in0.0 mm 6.65 in168.9 mm
11:40 PM 58.1°F14.5°C 56.1°F13.4°C 93% 2.3 mph ESE3.7 kmh ESE 3.5 mph5.6 kmh 29.73 in1006.8 mb - 0.00 in0.0 mm 6.65 in168.9 mm
11:45 PM 58.0°F14.4°C 56.0°F13.3°C 93% 2.3 mph E3.7 kmh E 3.5 mph5.6 kmh 29.73 in1006.8 mb - 0.00 in0.0 mm 6.65 in168.9 mm
11:50 PM 58.1°F14.5°C 56.1°F13.4°C 93% 2.3 mph ESE3.7 kmh ESE 5.8 mph9.3 kmh 29.73 in1006.8 mb - 0.00 in0.0 mm 6.65 in168.9 mm
11:55 PM 58.1°F14.5°C 56.0°F13.3°C 93% 2.3 mph ESE3.7 kmh ESE 3.5 mph5.6 kmh 29.73 in1006.8 mb - 0.00 in0.0 mm 6.65 in168.9 mm